Time;durP1;ratioP1;P1;durP2;ratioP2;P2;SDS_P1;SDS_P2;PMS_P1;PMS_P2;Temp;Humidity;BMP_temperature;BMP_pressure;BME280_temperature;BME280_humidity;BME280_pressure;Samples;Min_cycle;Max_cycle;Signal;HPM_P1;HPM_P2
2022/05/24 00:02:06;;;;;;;10.83;9.83;;;;;;;18.05;70.02;99271.75;5042417;28;20177;-65
2022/05/24 00:04:31;;;;;;;10.47;9.47;;;;;;;18.77;69.18;99262.25;5041952;28;20212;-65
2022/05/24 00:06:58;;;;;;;10.53;9.50;;;;;;;18.87;67.74;99264.44;5041972;28;20206;-65
2022/05/24 00:09:24;;;;;;;11.07;10.00;;;;;;;18.75;68.47;99266.72;5041581;28;20170;-65
2022/05/24 00:11:49;;;;;;;9.50;8.90;;;;;;;18.63;69.18;99272.59;5041828;28;20406;-64
2022/05/24 00:14:14;;;;;;;8.97;8.37;;;;;;;18.46;67.99;99268.97;5041825;28;20388;-65
2022/05/24 00:16:40;;;;;;;11.10;9.57;;;;;;;18.82;67.31;99267.28;5042143;28;20170;-64
2022/05/24 00:19:05;;;;;;;9.90;9.10;;;;;;;18.37;67.34;99276.47;5041796;28;20555;-65
2022/05/24 00:21:31;;;;;;;10.00;9.13;;;;;;;18.29;68.48;99276.81;5041732;28;20266;-66
2022/05/24 00:23:56;;;;;;;9.43;8.53;;;;;;;18.17;67.99;99275.56;5041611;28;20256;-65
2022/05/24 00:26:28;;;;;;;10.07;9.03;;;;;;;18.42;68.01;99285.88;5041756;28;20188;-64
2022/05/24 00:28:53;;;;;;;9.80;9.00;;;;;;;18.46;67.34;99276.88;5041376;28;20190;-65
2022/05/24 00:31:19;;;;;;;9.70;8.70;;;;;;;17.88;68.30;99287.41;5041594;28;20464;-65
2022/05/24 00:33:44;;;;;;;9.80;8.90;;;;;;;18.35;67.75;99289.72;5041357;28;20186;-65
2022/05/24 00:36:09;;;;;;;10.60;9.60;;;;;;;17.55;71.15;99293.19;5041979;28;20166;-65
2022/05/24 00:38:39;;;;;;;9.90;9.10;;;;;;;17.96;71.73;99280.91;5041431;28;20185;-65
2022/05/24 00:41:27;;;;;;;11.20;10.20;;;;;;;17.49;73.50;99289.94;5041301;28;20567;-64
2022/05/24 00:44:06;;;;;;;11.27;10.37;;;;;;;17.53;74.13;99290.63;5040604;28;21645;-65
2022/05/24 00:46:44;;;;;;;11.67;10.53;;;;;;;17.66;74.34;99291.84;5041275;28;20423;-64
2022/05/24 00:49:23;;;;;;;11.97;10.77;;;;;;;17.83;74.56;99288.47;5040538;28;20684;-65
2022/05/24 00:51:53;;;;;;;11.90;11.00;;;;;;;17.79;74.15;99289.53;5040292;28;20413;-65
2022/05/24 00:54:18;;;;;;;13.37;12.20;;;;;;;17.70;75.56;99297.84;5041094;28;20787;-64
2022/05/24 00:56:53;;;;;;;13.10;12.00;;;;;;;17.99;75.80;99298.38;5041013;28;20412;-64
2022/05/24 00:59:42;;;;;;;14.30;13.10;;;;;;;17.96;75.21;99294.09;5040281;28;20208;-65
2022/05/24 01:02:07;;;;;;;13.60;12.30;;;;;;;18.12;74.79;99307.44;5040112;28;20445;-65
2022/05/24 01:04:33;;;;;;;14.97;13.27;;;;;;;18.65;73.43;99294.50;5040919;28;20404;-65
2022/05/24 01:06:58;;;;;;;15.70;13.60;;;;;;;18.13;74.34;99297.75;5040864;28;20445;-65
2022/05/24 01:09:40;;;;;;;13.60;12.50;;;;;;;18.42;74.77;99296.44;5040455;28;20166;-65
2022/05/24 01:12:09;;;;;;;13.50;12.50;;;;;;;18.61;73.87;99292.94;5040651;28;20252;-64
2022/05/24 01:14:34;;;;;;;14.17;12.80;;;;;;;18.13;76.05;99305.66;5040033;28;20417;-65
2022/05/24 01:17:00;;;;;;;14.83;13.63;;;;;;;18.45;76.21;99295.44;5039923;28;20493;-64
2022/05/24 01:19:46;;;;;;;15.20;13.80;;;;;;;18.52;75.97;99305.66;5040582;28;20206;-65
2022/05/24 01:22:44;;;;;;;16.60;14.83;;;;;;;18.68;75.28;99300.47;5039869;28;20515;-65
2022/05/24 01:25:25;;;;;;;16.37;14.87;;;;;;;18.10;78.06;99309.28;5040591;28;20430;-65
2022/05/24 01:27:51;;;;;;;17.47;15.90;;;;;;;18.31;78.91;99309.28;5040481;28;20444;-65
2022/05/24 01:30:16;;;;;;;17.10;15.60;;;;;;;18.41;78.35;99318.47;5040396;28;20480;-65
2022/05/24 01:38:15;;;;;;;18.93;17.33;;;;;;;17.97;81.26;99337.16;5039645;28;20755;-65
2022/05/24 01:40:41;;;;;;;19.03;17.40;;;;;;;18.29;80.76;99345.41;5039650;28;20551;-65
2022/05/24 01:43:06;;;;;;;18.73;17.17;;;;;;;17.83;81.34;99341.19;5040214;28;20427;-66
2022/05/24 01:45:40;;;;;;;16.87;15.50;;;;;;;17.16;83.62;99358.00;5040139;28;20253;-66
2022/05/24 01:48:11;;;;;;;18.30;16.60;;;;;;;16.84;86.72;99374.13;5040119;28;20167;-66
2022/05/24 01:50:37;;;;;;;14.57;13.23;;;;;;;16.89;85.65;99373.09;5040241;28;20394;-64
2022/05/24 01:53:06;;;;;;;11.30;10.40;;;;;;;16.74;85.57;99385.06;5039938;28;20447;-65
2022/05/24 01:55:38;;;;;;;9.83;9.03;;;;;;;16.33;85.79;99390.91;5039338;28;20427;-65
2022/05/24 01:58:07;;;;;;;8.73;8.03;;;;;;;16.67;84.63;99400.22;5039285;28;20420;-65
2022/05/24 02:00:32;;;;;;;9.40;8.60;;;;;;;16.61;85.05;99410.97;5039256;28;20492;-65
2022/05/24 02:02:57;;;;;;;9.37;8.67;;;;;;;16.65;84.77;99410.78;5039059;28;20417;-65
2022/05/24 02:05:34;;;;;;;10.27;9.37;;;;;;;16.73;85.29;99418.41;5040264;28;20170;-65
2022/05/24 02:08:00;;;;;;;10.40;9.43;;;;;;;16.78;85.30;99415.59;5039834;28;20202;-65
2022/05/24 02:10:26;;;;;;;10.77;9.87;;;;;;;17.25;83.82;99417.34;5039686;28;20388;-65
2022/05/24 02:12:57;;;;;;;11.87;10.70;;;;;;;16.84;83.73;99431.16;5039041;28;20396;-66
2022/05/24 02:15:27;;;;;;;11.50;10.60;;;;;;;16.47;84.40;99437.78;5039610;28;20427;-65
2022/05/24 02:18:03;;;;;;;12.50;11.30;;;;;;;16.17;86.69;99441.41;5038757;28;20461;-64
2022/05/24 02:20:32;;;;;;;12.37;11.43;;;;;;;16.68;85.44;99438.75;5038638;28;20483;-64
2022/05/24 02:22:57;;;;;;;12.30;11.40;;;;;;;16.61;84.70;99437.25;5038177;28;20437;-66
2022/05/24 02:25:32;;;;;;;13.37;12.30;;;;;;;16.62;84.07;99433.72;5039299;28;20423;-64
2022/05/24 02:27:57;;;;;;;12.37;11.27;;;;;;;16.77;83.14;99448.94;5039279;28;20631;-65
2022/05/24 02:30:26;;;;;;;12.73;11.73;;;;;;;16.45;83.33;99453.63;5039195;28;20481;-65
2022/05/24 02:32:51;;;;;;;12.67;11.60;;;;;;;16.39;82.75;99456.44;5039472;28;20181;-65
2022/05/24 02:35:17;;;;;;;13.73;12.63;;;;;;;16.49;81.81;99462.22;5039269;28;20702;-65
2022/05/24 02:37:43;;;;;;;14.57;13.30;;;;;;;16.71;81.15;99461.47;5039151;28;20170;-65
2022/05/24 02:42:53;;;;;;;14.73;13.43;;;;;;;16.06;82.13;99466.34;5038533;28;20185;-65
2022/05/24 02:45:19;;;;;;;16.70;15.00;;;;;;;16.11;82.08;99474.94;5039147;28;20420;-65
2022/05/24 02:47:44;;;;;;;15.63;14.23;;;;;;;16.40;80.96;99488.84;5039012;28;20202;-64
2022/05/24 02:50:11;;;;;;;16.47;15.07;;;;;;;16.42;80.40;99480.00;5038268;28;20174;-65
2022/05/24 02:52:37;;;;;;;15.17;13.70;;;;;;;16.43;80.31;99491.41;5039139;28;20170;-65
2022/05/24 02:55:04;;;;;;;17.97;15.70;;;;;;;16.13;80.65;99486.28;5038826;28;20406;-65
2022/05/24 02:57:29;;;;;;;16.70;14.97;;;;;;;16.19;80.24;99487.84;5038770;28;20638;-65
2022/05/24 02:59:55;;;;;;;17.20;15.50;;;;;;;16.28;79.17;99493.63;5038981;28;20405;-65
2022/05/24 03:02:20;;;;;;;17.83;16.10;;;;;;;16.38;79.47;99499.44;5038541;28;20459;-64
2022/05/24 03:04:45;;;;;;;17.03;15.43;;;;;;;16.41;79.24;99501.97;5038598;28;20197;-64
2022/05/24 03:09:54;;;;;;;17.23;15.50;;;;;;;16.26;79.21;99502.47;5038573;28;20379;-65
2022/05/24 03:15:04;;;;;;;15.37;13.80;;;;;;;15.83;80.55;99510.88;5038432;28;20189;-65
2022/05/24 03:17:29;;;;;;;16.73;15.03;;;;;;;16.31;79.67;99514.56;5038370;28;20431;-65
2022/05/24 03:19:55;;;;;;;17.40;15.07;;;;;;;16.11;79.90;99512.59;5038424;28;20399;-64
2022/05/24 03:22:20;;;;;;;15.00;13.40;;;;;;;16.11;79.04;99520.47;5038275;28;20443;-65
2022/05/24 03:24:45;;;;;;;17.17;15.57;;;;;;;16.22;80.13;99514.03;5038707;28;20166;-65
2022/05/24 03:27:13;;;;;;;17.70;16.03;;;;;;;16.10;80.35;99526.69;5038412;28;20178;-65
2022/05/24 03:29:42;;;;;;;18.67;14.87;;;;;;;16.20;80.12;99537.75;5038413;28;20428;-64
2022/05/24 03:32:08;;;;;;;16.70;15.20;;;;;;;16.40;79.45;99539.72;5038439;28;20398;-65
2022/05/24 03:34:35;;;;;;;17.70;15.97;;;;;;;16.51;78.62;99547.25;5037430;28;20404;-66
2022/05/24 03:37:00;;;;;;;16.90;15.10;;;;;;;16.31;79.62;99542.66;5037336;28;20395;-64
2022/05/24 03:39:25;;;;;;;17.17;15.57;;;;;;;16.19;80.07;99559.69;5038531;28;20402;-65
2022/05/24 03:41:50;;;;;;;16.27;14.70;;;;;;;16.15;79.34;99560.69;5037988;28;20488;-64
2022/05/24 03:44:16;;;;;;;16.70;15.00;;;;;;;16.21;78.92;99562.25;5038068;28;20200;-64
2022/05/24 03:46:42;;;;;;;14.70;13.40;;;;;;;16.22;78.72;99562.19;5037774;28;20189;-64
2022/05/24 03:49:07;;;;;;;18.80;14.80;;;;;;;16.26;78.21;99563.81;5038089;28;20182;-64
2022/05/24 03:51:33;;;;;;;14.60;13.20;;;;;;;16.22;77.66;99564.81;5038051;28;20696;-65
2022/05/24 03:53:58;;;;;;;15.57;13.90;;;;;;;16.28;77.04;99569.91;5038296;28;20189;-65
2022/05/24 03:56:24;;;;;;;14.57;13.20;;;;;;;16.39;77.53;99566.91;5038236;28;20166;-65
2022/05/24 03:58:49;;;;;;;14.27;12.97;;;;;;;16.52;76.26;99579.66;5037179;28;20570;-64
2022/05/24 04:01:15;;;;;;;13.73;12.47;;;;;;;16.32;76.16;99589.09;5038467;28;20357;-65
2022/05/24 04:03:40;;;;;;;11.80;10.67;;;;;;;16.35;76.19;99596.88;5037667;28;20439;-64
2022/05/24 04:06:05;;;;;;;12.73;11.43;;;;;;;16.59;75.22;99600.47;5037190;28;20561;-64
2022/05/24 04:08:31;;;;;;;11.70;10.50;;;;;;;16.13;75.91;99600.19;5038186;28;20224;-65
2022/05/24 04:11:00;;;;;;;11.07;10.13;;;;;;;16.30;75.41;99601.41;5037861;28;20224;-65
2022/05/24 04:13:25;;;;;;;10.07;9.13;;;;;;;16.44;75.00;99591.31;5037797;28;20181;-65
2022/05/24 04:15:51;;;;;;;11.07;9.73;;;;;;;16.23;75.16;99605.16;5038240;28;20404;-65
2022/05/24 04:18:16;;;;;;;10.33;9.33;;;;;;;16.23;75.45;99605.16;5037624;28;20228;-65
2022/05/24 04:20:41;;;;;;;9.60;8.80;;;;;;;16.25;76.12;99609.47;5037664;28;20224;-65
2022/05/24 04:23:12;;;;;;;10.67;9.30;;;;;;;16.56;74.55;99620.75;5038346;28;20166;-65
2022/05/24 04:25:37;;;;;;;11.60;9.30;;;;;;;16.25;75.28;99627.00;5037771;28;20201;-65
2022/05/24 04:28:03;;;;;;;11.33;10.13;;;;;;;16.40;74.34;99629.16;5037834;28;20430;-65
2022/05/24 04:30:28;;;;;;;9.50;8.50;;;;;;;16.12;74.76;99630.00;5038042;28;20520;-65
2022/05/24 04:32:53;;;;;;;10.07;9.00;;;;;;;16.83;73.81;99627.72;5037499;28;20177;-65
2022/05/24 04:35:19;;;;;;;9.40;8.47;;;;;;;16.56;73.81;99626.00;5037533;28;20171;-64
2022/05/24 04:37:44;;;;;;;10.90;9.70;;;;;;;16.05;74.61;99628.50;5037986;28;20571;-64
2022/05/24 04:40:10;;;;;;;8.83;8.03;;;;;;;16.45;73.52;99624.59;5037514;28;20237;-65
2022/05/24 04:42:35;;;;;;;9.10;8.20;;;;;;;16.25;73.49;99624.34;5037464;28;20166;-65
2022/05/24 04:45:06;;;;;;;8.40;7.60;;;;;;;16.15;73.82;99619.38;5037445;28;20190;-66
2022/05/24 04:47:32;;;;;;;8.10;7.37;;;;;;;16.17;73.20;99627.25;5041257;28;20174;-65
2022/05/24 04:49:59;;;;;;;8.63;7.87;;;;;;;16.62;72.43;99636.34;5041191;28;20419;-64
2022/05/24 04:52:28;;;;;;;8.23;7.33;;;;;;;16.12;73.53;99642.31;5041337;28;20372;-65
2022/05/24 04:54:53;;;;;;;7.90;7.00;;;;;;;16.10;72.90;99647.63;5041122;28;20842;-67
2022/05/24 04:57:19;;;;;;;8.20;7.40;;;;;;;16.25;72.12;99654.16;5041053;28;20483;-66
2022/05/24 04:59:45;;;;;;;8.23;7.10;;;;;;;16.25;72.69;99648.03;5041421;28;20170;-65
2022/05/24 05:02:10;;;;;;;7.67;6.87;;;;;;;15.95;73.04;99669.09;5040965;28;20391;-65
2022/05/24 05:04:36;;;;;;;7.90;7.10;;;;;;;15.80;73.61;99676.53;5040926;28;20178;-65
2022/05/24 05:07:01;;;;;;;6.83;6.30;;;;;;;16.02;73.43;99672.41;5041393;28;20246;-65
2022/05/24 05:09:34;;;;;;;7.70;6.83;;;;;;;15.87;73.82;99671.09;5040879;28;20170;-65
2022/05/24 05:12:00;;;;;;;7.77;7.03;;;;;;;16.27;72.82;99673.38;5040719;28;20170;-66
2022/05/24 05:14:25;;;;;;;8.13;7.30;;;;;;;16.36;72.78;99669.59;5041195;28;20413;-65
2022/05/24 05:16:51;;;;;;;7.00;6.30;;;;;;;16.61;72.09;99666.19;5040568;28;20464;-64
2022/05/24 05:19:16;;;;;;;7.20;6.60;;;;;;;16.62;71.90;99665.28;5040581;28;20170;-64
2022/05/24 05:21:41;;;;;;;9.33;7.83;;;;;;;16.81;71.22;99663.75;5040928;28;20244;-64
2022/05/24 05:24:07;;;;;;;8.63;7.83;;;;;;;16.89;71.64;99662.66;5039666;28;20171;-65
2022/05/24 05:26:32;;;;;;;9.90;7.17;;;;;;;17.00;71.26;99650.00;5040531;28;20171;-65
2022/05/24 05:28:58;;;;;;;8.90;7.03;;;;;;;17.96;68.14;99644.78;5041021;28;20186;-65
2022/05/24 05:31:26;;;;;;;7.90;7.20;;;;;;;20.56;60.16;99645.88;5040359;28;20436;-64
2022/05/24 05:33:51;;;;;;;7.10;6.43;;;;;;;21.08;56.33;99640.66;5040283;28;20164;-65
2022/05/24 05:36:20;;;;;;;6.60;6.10;;;;;;;21.34;55.54;99638.44;5040789;28;20405;-64
2022/05/24 05:38:46;;;;;;;6.33;5.73;;;;;;;20.86;54.93;99644.41;5040266;28;20533;-66
2022/05/24 05:41:20;;;;;;;6.30;5.70;;;;;;;20.18;57.34;99652.94;5039983;28;20488;-64
2022/05/24 05:43:45;;;;;;;6.20;5.60;;;;;;;18.93;60.94;99671.75;5040085;28;20291;-65
2022/05/24 05:46:12;;;;;;;9.47;6.40;;;;;;;18.18;63.13;99675.59;5040150;28;20452;-64
2022/05/24 05:48:41;;;;;;;8.27;6.50;;;;;;;18.07;63.77;99675.16;5040305;28;20166;-65
2022/05/24 05:51:08;;;;;;;7.33;6.40;;;;;;;17.46;65.45;99689.69;5039206;28;20688;-65
2022/05/24 05:53:33;;;;;;;7.90;7.03;;;;;;;17.38;65.40;99689.94;5039698;28;20420;-65
2022/05/24 05:55:59;;;;;;;8.30;6.67;;;;;;;17.88;64.95;99686.38;5040459;28;20500;-64
2022/05/24 05:58:24;;;;;;;7.03;6.37;;;;;;;17.57;63.79;99697.19;5038894;28;20245;-64
2022/05/24 06:00:50;;;;;;;8.77;7.87;;;;;;;17.92;64.33;99689.81;5039711;28;20213;-64
2022/05/24 06:03:16;;;;;;;6.87;6.17;;;;;;;17.73;63.79;99690.44;5040268;28;20158;-64
2022/05/24 06:05:43;;;;;;;7.70;7.00;;;;;;;17.27;65.67;99689.47;5039810;28;20181;-65
2022/05/24 06:08:09;;;;;;;9.27;7.53;;;;;;;17.86;63.54;99688.22;5039790;28;20420;-65
2022/05/24 06:10:36;;;;;;;7.10;6.50;;;;;;;18.12;62.97;99692.53;5040064;28;20384;-65
2022/05/24 06:13:02;;;;;;;7.37;6.67;;;;;;;17.55;63.76;99697.25;5039459;28;20174;-65
2022/05/24 06:15:27;;;;;;;7.47;6.77;;;;;;;17.55;64.30;99709.56;5039447;28;20833;-65
2022/05/24 06:17:53;;;;;;;7.60;7.00;;;;;;;18.38;63.08;99701.22;5039710;28;20230;-65
2022/05/24 06:20:21;;;;;;;7.40;6.70;;;;;;;18.05;62.53;99704.25;5039546;28;20190;-64
2022/05/24 06:22:54;;;;;;;7.50;6.80;;;;;;;18.52;61.51;99711.22;5039682;28;20170;-65
2022/05/24 06:25:21;;;;;;;7.40;6.70;;;;;;;18.30;62.31;99716.47;5039293;28;20412;-65
2022/05/24 06:27:46;;;;;;;8.37;7.50;;;;;;;18.57;61.98;99711.03;5039195;28;20443;-65
2022/05/24 06:30:12;;;;;;;7.83;7.13;;;;;;;17.95;63.50;99718.69;5039151;28;20658;-65
2022/05/24 06:32:37;;;;;;;9.30;8.50;;;;;;;17.67;64.12;99727.56;5039253;28;20177;-66
2022/05/24 06:35:03;;;;;;;10.00;9.13;;;;;;;18.37;62.53;99717.94;5039722;28;20540;-65
2022/05/24 06:37:30;;;;;;;9.60;8.70;;;;;;;18.13;62.86;99723.28;5039126;28;20174;-65
2022/05/24 06:39:55;;;;;;;10.33;9.43;;;;;;;19.75;58.65;99728.13;5039266;28;20558;-65
2022/05/24 06:42:21;;;;;;;8.30;7.70;;;;;;;19.77;58.31;99734.19;5039436;28;20427;-65
2022/05/24 06:44:46;;;;;;;8.90;8.10;;;;;;;19.27;60.07;99743.44;5039007;28;20189;-65
2022/05/24 06:47:11;;;;;;;9.97;8.97;;;;;;;18.91;61.40;99738.75;5038994;28;20184;-65
2022/05/24 06:49:37;;;;;;;9.73;8.93;;;;;;;19.04;61.07;99737.31;5039366;28;20163;-65
2022/05/24 06:52:03;;;;;;;9.43;8.73;;;;;;;18.84;61.53;99736.31;5038813;28;20178;-65
2022/05/24 06:54:29;;;;;;;9.47;8.63;;;;;;;19.04;61.25;99739.97;5038764;28;20170;-65
2022/05/24 06:56:54;;;;;;;9.20;8.40;;;;;;;18.71;62.50;99744.78;5039288;28;20412;-64
2022/05/24 07:04:47;;;;;;;9.60;8.67;;;;;;;18.61;61.84;99749.59;5038708;28;20724;-65
2022/05/24 07:07:13;;;;;;;10.17;9.17;;;;;;;18.79;61.88;99756.75;5038659;28;20444;-65
2022/05/24 07:09:40;;;;;;;11.47;10.40;;;;;;;19.05;61.50;99749.63;5038381;28;20185;-65
2022/05/24 07:12:05;;;;;;;11.43;10.43;;;;;;;19.56;59.55;99754.53;5038283;28;20541;-65
2022/05/24 07:14:33;;;;;;;11.70;10.80;;;;;;;20.08;57.96;99754.00;5038692;28;20499;-65
2022/05/24 07:16:58;;;;;;;10.77;9.87;;;;;;;20.51;57.16;99750.25;5038092;28;20599;-65
2022/05/24 07:19:25;;;;;;;11.70;10.70;;;;;;;20.36;57.31;99751.81;5038046;28;20387;-67
2022/05/24 07:21:50;;;;;;;10.80;9.90;;;;;;;21.23;53.88;99744.13;5038668;28;20219;-65
2022/05/24 07:24:15;;;;;;;10.50;9.53;;;;;;;21.43;52.01;99746.63;5038187;28;20419;-65
2022/05/24 07:26:42;;;;;;;10.17;9.20;;;;;;;20.81;54.55;99756.78;5038293;28;20471;-65
2022/05/24 07:29:07;;;;;;;11.23;10.33;;;;;;;19.86;56.70;99765.56;5038641;28;20201;-64
2022/05/24 07:31:33;;;;;;;12.20;11.20;;;;;;;20.39;56.47;99760.53;5038441;28;20498;-65
2022/05/24 07:33:59;;;;;;;11.47;10.50;;;;;;;19.51;58.74;99765.28;5038104;28;20175;-65
2022/05/24 07:36:24;;;;;;;11.67;10.60;;;;;;;19.79;58.51;99764.94;5038595;28;20166;-65
2022/05/24 07:38:49;;;;;;;10.67;9.77;;;;;;;21.33;54.98;99762.16;5038199;28;20420;-65
2022/05/24 07:46:43;;;;;;;12.40;11.30;;;;;;;21.79;51.07;99768.72;5037962;28;20444;-66
2022/05/24 07:49:08;;;;;;;12.90;11.33;;;;;;;21.81;52.42;99783.63;5038028;28;20659;-65
2022/05/24 07:51:34;;;;;;;12.87;11.57;;;;;;;20.66;54.78;99785.72;5037962;28;20466;-65
2022/05/24 07:53:59;;;;;;;14.57;12.97;;;;;;;21.15;53.79;99794.91;5038125;28;20533;-65
2022/05/24 07:56:24;;;;;;;14.70;13.47;;;;;;;20.12;55.69;99796.16;5037986;28;20182;-66
2022/05/24 07:58:51;;;;;;;13.00;11.87;;;;;;;19.19;58.37;99802.72;5037977;28;20525;-65
2022/05/24 08:01:16;;;;;;;11.37;10.30;;;;;;;20.51;54.79;99800.53;5038370;28;20611;-64
2022/05/24 08:03:42;;;;;;;11.77;10.77;;;;;;;22.35;50.57;99801.13;5037438;28;20517;-65
2022/05/24 08:06:07;;;;;;;11.50;10.43;;;;;;;23.72;47.06;99789.81;5037630;28;20170;-65
2022/05/24 08:08:33;;;;;;;9.93;9.10;;;;;;;24.21;45.47;99797.47;5038162;28;20162;-66
2022/05/24 08:10:59;;;;;;;11.43;10.33;;;;;;;24.61;44.29;99804.75;5037775;28;20209;-65
2022/05/24 08:13:24;;;;;;;10.80;9.80;;;;;;;24.25;45.26;99810.59;5037597;28;20316;-65
2022/05/24 08:15:51;;;;;;;10.33;9.50;;;;;;;22.40;49.16;99820.34;5037990;28;20244;-65
2022/05/24 08:18:16;;;;;;;12.37;11.27;;;;;;;22.79;47.92;99821.72;5036778;28;20252;-65
2022/05/24 08:20:42;;;;;;;12.47;11.17;;;;;;;21.49;50.77;99823.22;5038524;28;20854;-65
2022/05/24 08:23:07;;;;;;;11.60;10.40;;;;;;;21.99;51.06;99826.03;5041951;28;20174;-65
2022/05/24 08:25:33;;;;;;;10.97;10.07;;;;;;;21.43;51.82;99823.50;5041294;28;20439;-66
2022/05/24 08:28:02;;;;;;;12.03;10.83;;;;;;;22.30;50.34;99829.69;5041519;28;20183;-65
2022/05/24 08:30:27;;;;;;;11.00;10.10;;;;;;;22.50;49.35;99821.56;5041963;28;20565;-66
2022/05/24 08:32:52;;;;;;;11.27;10.27;;;;;;;21.43;51.64;99834.13;5041230;28;20421;-66
2022/05/24 08:35:19;;;;;;;12.00;11.00;;;;;;;20.66;53.94;99837.81;5041251;28;20220;-65
2022/05/24 08:37:45;;;;;;;10.97;9.83;;;;;;;21.02;53.26;99837.03;5042294;28;20162;-65
2022/05/24 08:40:12;;;;;;;12.80;11.60;;;;;;;21.02;52.55;99837.03;5041115;28;20440;-65
2022/05/24 08:43:03;;;;;;;11.60;10.50;;;;;;;21.45;51.39;99832.25;5040980;28;20408;-65
2022/05/24 08:48:30;;;;;;;12.80;11.60;;;;;;;19.94;56.86;99849.88;5041445;28;20455;-65
2022/05/24 08:51:11;;;;;;;13.93;12.50;;;;;;;20.03;56.40;99841.53;5040174;28;20474;-65
2022/05/24 08:53:45;;;;;;;16.33;14.70;;;;;;;20.05;57.09;99846.75;5040276;28;20421;-64
2022/05/24 08:56:15;;;;;;;14.00;12.63;;;;;;;19.30;58.92;99864.84;5040960;28;20692;-65
2022/05/24 08:58:44;;;;;;;13.93;12.67;;;;;;;19.61;57.61;99847.72;5040777;28;20413;-65
2022/05/24 09:01:21;;;;;;;12.90;11.70;;;;;;;20.33;55.92;99846.38;5040056;28;20527;-64
2022/05/24 09:03:46;;;;;;;12.93;11.80;;;;;;;21.28;53.50;99838.41;5040218;28;20818;-65
2022/05/24 09:06:46;;;;;;;12.63;11.33;;;;;;;22.13;51.69;99831.47;5040080;28;20496;-66
2022/05/24 09:09:42;;;;;;;12.63;11.30;;;;;;;21.96;50.63;99835.03;5040241;28;20255;-65
2022/05/24 09:12:34;;;;;;;12.43;10.97;;;;;;;23.11;48.65;99827.03;5040563;28;20459;-66
2022/05/24 09:15:09;;;;;;;11.20;10.30;;;;;;;23.03;47.90;99824.81;5040482;28;20421;-65
2022/05/24 09:18:06;;;;;;;10.57;9.60;;;;;;;23.58;46.04;99825.22;5040423;28;20456;-65
2022/05/24 09:20:38;;;;;;;10.63;9.63;;;;;;;23.82;46.08;99827.38;5039903;28;20750;-65
2022/05/24 09:23:10;;;;;;;10.80;9.80;;;;;;;22.99;46.88;99838.38;5040378;28;20439;-65
2022/05/24 09:25:35;;;;;;;10.47;9.57;;;;;;;22.11;48.61;99843.09;5039900;28;20945;-66
2022/05/24 09:28:01;;;;;;;11.07;10.17;;;;;;;21.27;51.16;99846.44;5040258;28;20492;-65
2022/05/24 09:30:38;;;;;;;11.80;10.77;;;;;;;21.22;51.16;99835.19;5040210;28;20224;-65
2022/05/24 09:33:24;;;;;;;13.07;11.77;;;;;;;21.66;50.51;99851.59;5037999;28;20170;-65
2022/05/24 09:35:54;;;;;;;20.03;12.23;;;;;;;21.60;49.55;99845.72;5040102;28;20508;-65
2022/05/24 09:38:22;;;;;;;11.70;10.70;;;;;;;22.19;49.11;99852.38;5039560;28;20419;-66
2022/05/24 09:40:55;;;;;;;11.60;10.40;;;;;;;21.83;49.94;99863.13;5040241;28;20738;-65
2022/05/24 09:43:28;;;;;;;12.20;11.20;;;;;;;20.66;52.68;99869.59;5039449;28;20445;-65
2022/05/24 09:45:57;;;;;;;12.70;11.50;;;;;;;20.15;53.13;99874.53;5040214;28;20516;-66
2022/05/24 09:48:28;;;;;;;12.37;11.23;;;;;;;20.07;53.17;99866.09;5040034;28;20806;-65
2022/05/24 09:50:55;;;;;;;13.30;12.07;;;;;;;19.58;55.67;99883.09;5039952;28;20421;-65
2022/05/24 09:53:26;;;;;;;14.47;13.07;;;;;;;19.79;55.53;99883.94;5039974;28;20424;-65
2022/05/24 09:56:05;;;;;;;12.90;11.60;;;;;;;20.07;55.46;99877.50;5055787;28;20417;-65
2022/05/24 09:58:36;;;;;;;13.40;11.10;;;;;;;19.44;55.80;99893.34;5055493;28;20658;-65
2022/05/24 10:01:09;;;;;;;11.30;10.30;;;;;;;19.12;56.53;99898.13;5039821;28;20464;-65
2022/05/24 10:03:52;;;;;;;12.50;11.40;;;;;;;19.38;56.56;99914.75;5038891;28;20420;-66
2022/05/24 10:06:29;;;;;;;12.17;11.00;;;;;;;19.11;56.89;99907.84;5039733;28;20464;-66
2022/05/24 10:08:58;;;;;;;10.83;9.83;;;;;;;18.89;57.06;99912.25;5039879;28;20416;-65
2022/05/24 10:11:43;;;;;;;10.97;9.97;;;;;;;18.78;57.13;99921.41;5039659;28;20405;-65
2022/05/24 10:14:11;;;;;;;11.73;10.63;;;;;;;18.69;57.36;99927.03;5038742;28;20543;-65
2022/05/24 10:16:43;;;;;;;11.43;10.43;;;;;;;18.28;58.12;99929.38;5039351;28;20409;-65
2022/05/24 10:19:17;;;;;;;11.23;10.20;;;;;;;18.61;58.13;99921.19;5038714;28;20799;-65
2022/05/24 10:22:06;;;;;;;13.10;11.90;;;;;;;18.85;57.52;99937.88;5038421;28;20460;-65
2022/05/24 10:24:40;;;;;;;13.17;11.47;;;;;;;18.98;57.62;99927.75;5039383;28;20425;-65
2022/05/24 10:27:28;;;;;;;12.97;11.80;;;;;;;19.56;55.35;99929.00;5038585;28;20417;-65
2022/05/24 10:30:13;;;;;;;15.83;12.83;;;;;;;19.34;56.17;99925.44;5039344;28;20799;-66
2022/05/24 10:39:07;;;;;;;13.70;12.40;;;;;;;18.77;59.36;99932.88;5039472;28;20497;-65
2022/05/24 10:42:09;;;;;;;15.50;13.80;;;;;;;18.83;61.00;99921.22;5038083;28;20465;-66
2022/05/24 10:44:47;;;;;;;16.73;14.93;;;;;;;18.56;62.47;99946.88;5038908;28;20463;-65
2022/05/24 10:47:22;;;;;;;17.30;15.57;;;;;;;18.83;64.05;99951.16;5038564;28;20423;-64
2022/05/24 10:49:50;;;;;;;17.23;15.53;;;;;;;18.71;63.58;99945.44;5039244;28;20745;-65
2022/05/24 10:52:28;;;;;;;17.53;15.90;;;;;;;19.13;63.56;99955.34;5038035;28;20432;-65
2022/05/24 10:54:58;;;;;;;18.07;16.47;;;;;;;18.15;65.81;99953.56;5038147;28;20405;-65
2022/05/24 10:57:35;;;;;;;18.20;16.50;;;;;;;18.04;66.40;99953.06;5038123;28;20421;-65
2022/05/24 11:00:05;;;;;;;17.57;15.63;;;;;;;17.77;67.11;99960.94;5038692;28;20408;-63
2022/05/24 11:03:12;;;;;;;16.43;14.53;;;;;;;18.20;66.16;99965.72;5038592;28;20446;-65
2022/05/24 11:05:46;;;;;;;12.93;11.73;;;;;;;18.08;64.69;99973.16;5038123;28;20425;-65
2022/05/24 11:08:20;;;;;;;11.87;10.77;;;;;;;17.18;64.78;99988.25;5054501;28;20405;-65
2022/05/24 11:10:48;;;;;;;13.27;12.07;;;;;;;17.17;66.44;99989.19;5038732;28;20790;-65
2022/05/24 11:13:18;;;;;;;12.10;10.90;;;;;;;17.46;64.85;99990.91;5037708;28;20678;-65
2022/05/24 11:15:51;;;;;;;10.63;9.53;;;;;;;16.95;65.44;100004.72;5054486;28;20474;-65
2022/05/24 11:18:19;;;;;;;12.33;11.23;;;;;;;17.39;64.82;100005.19;5037410;28;20505;-65
2022/05/24 11:21:06;;;;;;;10.93;9.93;;;;;;;17.98;63.35;100008.66;5037669;28;20769;-65
2022/05/24 11:23:37;;;;;;;11.10;10.10;;;;;;;17.68;63.79;100016.59;5038322;28;20459;-65
2022/05/24 11:26:11;;;;;;;10.60;9.60;;;;;;;17.77;63.14;100005.75;5038262;28;20411;-65
2022/05/24 11:28:42;;;;;;;11.63;10.40;;;;;;;18.11;62.43;99999.41;5038094;28;20445;-65
2022/05/24 11:31:36;;;;;;;11.67;10.40;;;;;;;18.28;61.91;100005.88;5037429;28;20429;-65
2022/05/24 11:34:19;;;;;;;11.47;10.47;;;;;;;17.93;63.38;100003.53;5037377;28;20769;-65
2022/05/24 11:36:48;;;;;;;12.03;10.87;;;;;;;18.38;61.86;99996.75;5038283;28;20432;-65
2022/05/24 11:39:22;;;;;;;12.40;11.10;;;;;;;18.39;61.73;100002.88;5038112;28;20420;-65
2022/05/24 11:41:48;;;;;;;11.97;10.77;;;;;;;18.64;62.11;100014.31;5037887;28;20468;-65
2022/05/24 11:44:34;;;;;;;12.13;10.93;;;;;;;18.44;62.79;100035.25;5037410;28;20413;-65
2022/05/24 11:47:00;;;;;;;12.93;11.53;;;;;;;18.72;61.95;100043.09;5037323;28;20216;-64
2022/05/24 11:49:28;;;;;;;12.07;10.80;;;;;;;18.49;62.75;100042.09;5037944;28;20414;-64
2022/05/24 11:51:55;;;;;;;10.60;9.70;;;;;;;18.94;61.09;100050.28;5037918;28;20544;-64
2022/05/24 11:54:21;;;;;;;11.90;10.70;;;;;;;18.50;61.73;100046.47;5037713;28;20438;-65
2022/05/24 11:57:01;;;;;;;11.30;10.40;;;;;;;18.94;60.24;100045.88;5037216;28;20447;-65
2022/05/24 11:59:39;;;;;;;11.13;9.60;;;;;;;19.27;59.51;100055.25;5037783;28;20717;-65
2022/05/24 12:02:27;;;;;;;12.17;10.30;;;;;;;19.57;58.56;100060.28;5037733;28;20438;-65
2022/05/24 12:07:59;;;;;;;13.33;10.30;;;;;;;20.15;57.68;100062.44;5037864;28;20496;-64
2022/05/24 12:10:33;;;;;;;11.70;10.57;;;;;;;19.60;57.87;100068.09;5037849;28;20413;-65